createdAt,value
2022-09-09T00:02:11.422Z,100.00
2022-09-09T00:07:38.867Z,100.00
2022-09-09T00:12:56.807Z,100.00
2022-09-09T00:18:33.261Z,100.00
2022-09-09T00:23:50.347Z,100.00
2022-09-09T00:28:57.969Z,100.00
2022-09-09T00:34:25.594Z,100.00
2022-09-09T00:39:42.945Z,100.00
2022-09-09T00:45:25.069Z,100.00
2022-09-09T00:50:36.757Z,100.00
2022-09-09T00:55:54.870Z,100.00
2022-09-09T01:01:14.280Z,100.00
2022-09-09T01:06:40.317Z,100.00
2022-09-09T01:12:18.338Z,100.00
2022-09-09T01:17:54.560Z,100.00
2022-09-09T01:23:22.131Z,100.00
2022-09-09T01:28:29.500Z,100.00
2022-09-09T01:33:32.839Z,100.00
2022-09-09T01:38:36.861Z,100.00
2022-09-09T01:43:39.861Z,100.00
2022-09-09T01:48:44.176Z,100.00
2022-09-09T01:53:47.941Z,100.00
2022-09-09T01:58:53.388Z,100.00
2022-09-09T02:04:00.319Z,100.00
2022-09-09T02:09:08.184Z,100.00
2022-09-09T02:14:23.231Z,100.00
2022-09-09T02:19:33.615Z,100.00
2022-09-09T02:24:39.973Z,100.00
2022-09-09T02:29:45.533Z,100.00
2022-09-09T02:35:03.379Z,100.00
2022-09-09T02:40:13.188Z,100.00
2022-09-09T02:45:23.038Z,100.00
2022-09-09T02:50:39.059Z,100.00
2022-09-09T02:55:51.174Z,100.00
2022-09-09T03:00:54.183Z,100.00
2022-09-09T03:05:57.943Z,100.00
2022-09-09T03:11:04.882Z,100.00
2022-09-09T03:16:07.738Z,100.00
2022-09-09T03:21:10.658Z,100.00
2022-09-09T03:26:15.752Z,100.00
2022-09-09T03:31:20.789Z,100.00
2022-09-09T03:36:23.734Z,100.00
2022-09-09T03:41:27.370Z,99.48
2022-09-09T03:46:30.140Z,98.49
2022-09-09T03:51:33.031Z,97.42
2022-09-09T03:56:36.539Z,97.40
2022-09-09T04:01:39.315Z,97.10
2022-09-09T04:06:42.074Z,97.04
2022-09-09T04:11:44.958Z,97.05
2022-09-09T04:16:47.730Z,97.21
2022-09-09T04:21:52.217Z,97.25
2022-09-09T04:26:54.999Z,97.30
2022-09-09T04:31:57.924Z,97.60
2022-09-09T04:37:02.353Z,97.64
2022-09-09T04:42:05.300Z,98.03
2022-09-09T04:47:08.122Z,98.12
2022-09-09T04:52:10.961Z,98.51
2022-09-09T04:57:18.441Z,98.59
2022-09-09T05:02:21.805Z,98.82
2022-09-09T05:07:24.736Z,99.56
2022-09-09T05:12:27.810Z,99.79
2022-09-09T05:17:30.489Z,99.85
2022-09-09T05:22:33.198Z,100.00
2022-09-09T05:27:36.538Z,100.00
2022-09-09T05:32:39.332Z,100.00
2022-09-09T05:37:42.113Z,100.00
2022-09-09T05:42:44.807Z,100.00
2022-09-09T05:47:56.309Z,100.00
2022-09-09T05:52:59.002Z,100.00
2022-09-09T05:58:02.298Z,100.00
2022-09-09T06:03:05.356Z,100.00
2022-09-09T06:08:08.432Z,100.00
2022-09-09T06:13:11.147Z,100.00
2022-09-09T06:18:14.005Z,100.00
2022-09-09T06:23:17.229Z,100.00
2022-09-09T06:28:20.315Z,99.46
2022-09-09T06:33:23.054Z,98.59
2022-09-09T06:38:26.248Z,97.43
2022-09-09T06:43:31.809Z,96.17
2022-09-09T06:48:35.283Z,96.12
2022-09-09T06:53:40.366Z,96.63
2022-09-09T06:58:45.046Z,96.46
2022-09-09T07:03:51.847Z,97.01
2022-09-09T07:08:57.588Z,96.09
2022-09-09T07:14:01.676Z,95.29
2022-09-09T07:19:05.343Z,95.42
2022-09-09T07:24:11.216Z,95.39
2022-09-09T07:29:20.786Z,95.73
2022-09-09T07:34:23.960Z,94.56
2022-09-09T07:39:26.692Z,93.72
2022-09-09T07:44:29.563Z,93.39
2022-09-09T07:49:33.379Z,90.58
2022-09-09T07:54:36.505Z,88.70
2022-09-09T07:59:39.221Z,89.11
2022-09-09T08:04:41.977Z,85.53
2022-09-09T08:09:44.914Z,84.97
2022-09-09T08:14:47.866Z,85.11
2022-09-09T08:19:50.625Z,83.31
2022-09-09T08:24:54.348Z,82.82
2022-09-09T08:29:57.622Z,81.79
2022-09-09T08:35:01.600Z,80.76
2022-09-09T08:40:05.200Z,79.32
2022-09-09T08:45:50.387Z,79.32
2022-09-09T08:50:53.898Z,78.76
2022-09-09T08:56:00.507Z,78.33
2022-09-09T09:01:27.938Z,75.89
2022-09-09T09:06:39.644Z,73.55
2022-09-09T09:11:55.826Z,72.23
2022-09-09T09:17:07.991Z,70.10
2022-09-09T09:22:21.116Z,72.74
2022-09-09T09:27:43.388Z,70.38
2022-09-09T09:33:12.318Z,70.50
2022-09-09T09:43:55.586Z,66.99
2022-09-09T09:49:06.509Z,67.09
2022-09-09T09:54:18.021Z,66.26
2022-09-09T09:59:38.646Z,64.42
2022-09-09T10:04:42.743Z,66.83
2022-09-09T10:09:46.095Z,67.36
2022-09-09T10:15:40.038Z,65.80
2022-09-09T10:21:01.446Z,63.27
2022-09-09T10:26:24.156Z,59.29
2022-09-09T10:31:58.166Z,61.95
2022-09-09T10:37:01.706Z,61.55
2022-09-09T10:42:15.283Z,57.94
2022-09-09T10:47:39.875Z,53.94
2022-09-09T10:53:09.369Z,56.41
2022-09-09T10:58:28.673Z,53.44
2022-09-09T11:03:34.739Z,53.20
2022-09-09T11:08:40.391Z,50.41
2022-09-09T11:14:19.166Z,46.89
2022-09-09T11:19:37.091Z,47.97
2022-09-09T11:24:46.735Z,41.38
2022-09-09T11:30:53.858Z,44.04
2022-09-09T11:36:11.326Z,41.28
2022-09-09T11:41:21.096Z,41.91
2022-09-09T11:46:37.537Z,41.25
2022-09-09T11:51:41.087Z,42.00
2022-09-09T11:56:46.166Z,42.76
2022-09-09T12:02:13.154Z,44.00
2022-09-09T12:07:34.895Z,44.29
2022-09-09T12:12:43.180Z,43.87
2022-09-09T12:17:54.254Z,43.95
2022-09-09T12:23:18.429Z,44.93
2022-09-09T12:28:51.920Z,44.48
2022-09-09T12:33:54.684Z,43.99
2022-09-09T12:39:11.566Z,44.09
2022-09-09T12:44:14.332Z,42.49
2022-09-09T12:49:39.654Z,43.35
2022-09-09T12:54:54.829Z,45.46
2022-09-09T13:00:10.039Z,44.97
2022-09-09T13:05:40.052Z,45.09
2022-09-09T13:10:58.745Z,43.43
2022-09-09T13:16:09.456Z,43.10
2022-09-09T13:21:12.358Z,43.65
2022-09-09T13:26:28.338Z,43.88
2022-09-09T13:31:35.094Z,43.78
2022-09-09T13:36:38.016Z,44.27
2022-09-09T13:41:46.480Z,43.10
2022-09-09T13:46:49.285Z,43.91
2022-09-09T13:51:54.970Z,43.90
2022-09-09T13:56:58.860Z,43.28
2022-09-09T14:02:02.874Z,45.45
2022-09-09T14:07:05.656Z,44.64
2022-09-09T14:12:13.457Z,43.59
2022-09-09T14:17:16.156Z,43.62
2022-09-09T14:22:18.830Z,42.91
2022-09-09T14:27:21.691Z,42.02
2022-09-09T14:32:25.150Z,42.18
2022-09-09T14:37:28.974Z,42.61
2022-09-09T14:42:32.466Z,43.85
2022-09-09T14:47:35.573Z,44.00
2022-09-09T14:52:38.245Z,43.00
2022-09-09T14:57:41.362Z,42.58
2022-09-09T15:02:44.173Z,44.02
2022-09-09T15:07:47.051Z,43.23
2022-09-09T15:12:49.805Z,41.64
2022-09-09T15:17:52.456Z,43.22
2022-09-09T15:22:55.162Z,42.01
2022-09-09T15:27:58.121Z,43.89
2022-09-09T15:33:00.892Z,45.03
2022-09-09T15:38:06.027Z,45.36
2022-09-09T15:43:10.589Z,43.39
2022-09-09T15:48:13.829Z,44.69
2022-09-09T15:53:16.524Z,43.99
2022-09-09T15:58:20.385Z,44.78
2022-09-09T16:03:23.172Z,44.13
2022-09-09T16:08:26.036Z,45.91
2022-09-09T16:13:29.000Z,47.62
2022-09-09T16:18:52.806Z,48.75
2022-09-09T16:23:56.065Z,50.09
2022-09-09T16:29:02.263Z,51.18
2022-09-09T16:34:06.426Z,52.36
2022-09-09T16:39:17.189Z,53.64
2022-09-09T16:44:20.519Z,54.65
2022-09-09T16:49:23.359Z,54.98
2022-09-09T16:54:28.071Z,55.81
2022-09-09T16:59:32.625Z,56.78
2022-09-09T17:04:35.740Z,57.10
2022-09-09T17:09:38.442Z,57.82
2022-09-09T17:14:41.262Z,57.54
2022-09-09T17:19:44.125Z,57.78
2022-09-09T17:24:47.934Z,58.17
2022-09-09T17:29:50.749Z,58.28
2022-09-09T17:34:54.031Z,58.72
2022-09-09T17:39:56.842Z,59.42
2022-09-09T17:45:00.148Z,60.03
2022-09-09T17:50:03.138Z,59.23
2022-09-09T17:55:07.323Z,60.24
2022-09-09T18:00:11.456Z,61.00
2022-09-09T18:05:14.858Z,61.11
2022-09-09T18:10:17.757Z,61.20
2022-09-09T18:15:33.511Z,60.93
2022-09-09T18:20:44.680Z,60.93
2022-09-09T18:25:47.385Z,61.12
2022-09-09T18:30:50.203Z,61.16
2022-09-09T18:35:53.578Z,61.38
2022-09-09T18:40:56.377Z,61.59
2022-09-09T18:46:05.011Z,61.67
2022-09-09T18:51:10.605Z,62.04
2022-09-09T18:56:13.903Z,62.56
2022-09-09T19:01:16.805Z,62.92
2022-09-09T19:06:23.917Z,62.66
2022-09-09T19:11:28.887Z,63.02
2022-09-09T19:16:34.944Z,63.66
2022-09-09T19:21:41.005Z,64.78
2022-09-09T19:26:49.495Z,65.43
2022-09-09T19:32:36.402Z,65.98
2022-09-09T19:37:18.850Z,66.76
2022-09-09T19:42:21.948Z,67.35
2022-09-09T19:47:24.769Z,67.36
2022-09-09T19:52:27.540Z,68.32
2022-09-09T19:57:30.821Z,68.73
2022-09-09T20:02:33.824Z,69.83
2022-09-09T20:07:36.674Z,70.68
2022-09-09T20:12:39.394Z,71.34
2022-09-09T20:17:42.731Z,72.39
2022-09-09T20:22:45.447Z,73.00
2022-09-09T20:27:48.832Z,73.89
2022-09-09T20:32:51.559Z,74.46
2022-09-09T20:37:55.138Z,75.51
2022-09-09T20:42:58.233Z,76.12
2022-09-09T20:48:00.860Z,76.65
2022-09-09T20:53:04.333Z,77.03
2022-09-09T20:58:07.298Z,77.40
2022-09-09T21:03:10.071Z,77.69
2022-09-09T21:08:13.038Z,78.61
2022-09-09T21:13:16.347Z,79.13
2022-09-09T21:18:19.707Z,79.91
2022-09-09T21:23:23.114Z,80.67
2022-09-09T21:28:25.860Z,81.70
2022-09-09T21:33:29.248Z,82.05
2022-09-09T21:38:33.019Z,82.51
2022-09-09T21:43:35.926Z,83.50
2022-09-09T21:48:38.765Z,84.26
2022-09-09T21:53:43.438Z,84.59
2022-09-09T21:58:47.361Z,84.82
2022-09-09T22:03:50.471Z,85.62
2022-09-09T22:08:58.994Z,85.53
2022-09-09T22:14:02.388Z,86.01
2022-09-09T22:19:05.126Z,86.60
2022-09-09T22:24:07.876Z,86.93
2022-09-09T22:29:11.254Z,87.31
2022-09-09T22:34:14.078Z,87.89
2022-09-09T22:39:17.586Z,88.29
2022-09-09T22:44:20.821Z,88.43
2022-09-09T22:49:24.293Z,89.00
2022-09-09T22:54:27.123Z,89.67
2022-09-09T22:59:30.034Z,89.92
2022-09-09T23:04:33.029Z,90.22
2022-09-09T23:09:35.852Z,90.52
2022-09-09T23:14:38.669Z,90.97
2022-09-09T23:19:41.571Z,91.69
2022-09-09T23:24:44.272Z,91.71
2022-09-09T23:29:48.717Z,92.43
2022-09-09T23:34:51.773Z,92.02
2022-09-09T23:39:54.600Z,92.36
2022-09-09T23:44:57.464Z,92.28
2022-09-09T23:50:00.328Z,92.86
2022-09-09T23:55:04.204Z,92.85
